地図

経路データ

SID SEASON NUMBER BASIN SUBBASIN NAME ISO_TIME NATURE LAT LON WMO_WIND WMO_PRES WMO_AGENCY TRACK_TYPE DIST2LAND LANDFALL IFLAG USA_AGENCY USA_ATCF_ID USA_LAT USA_LON USA_RECORD USA_STATUS USA_WIND USA_PRES USA_SSHS USA_R34_NE USA_R34_SE USA_R34_SW USA_R34_NW USA_R50_NE USA_R50_SE USA_R50_SW USA_R50_NW USA_R64_NE USA_R64_SE USA_R64_SW USA_R64_NW USA_POCI USA_ROCI USA_RMW USA_EYE TOKYO_LAT TOKYO_LON TOKYO_GRADE TOKYO_WIND TOKYO_PRES TOKYO_R50_DIR TOKYO_R50_LONG TOKYO_R50_SHORT TOKYO_R30_DIR TOKYO_R30_LONG TOKYO_R30_SHORT TOKYO_LAND CMA_LAT CMA_LON CMA_CAT CMA_WIND CMA_PRES HKO_LAT HKO_LON HKO_CAT HKO_WIND HKO_PRES NEWDELHI_LAT NEWDELHI_LON NEWDELHI_GRADE NEWDELHI_WIND NEWDELHI_PRES NEWDELHI_CI NEWDELHI_DP NEWDELHI_POCI REUNION_LAT REUNION_LON REUNION_TYPE REUNION_WIND REUNION_PRES REUNION_TNUM REUNION_CI REUNION_RMW REUNION_R34_NE REUNION_R34_SE REUNION_R34_SW REUNION_R34_NW REUNION_R50_NE REUNION_R50_SE REUNION_R50_SW REUNION_R50_NW REUNION_R64_NE REUNION_R64_SE REUNION_R64_SW REUNION_R64_NW BOM_LAT BOM_LON BOM_TYPE BOM_WIND BOM_PRES BOM_TNUM BOM_CI BOM_RMW BOM_R34_NE BOM_R34_SE BOM_R34_SW BOM_R34_NW BOM_R50_NE BOM_R50_SE BOM_R50_SW BOM_R50_NW BOM_R64_NE BOM_R64_SE BOM_R64_SW BOM_R64_NW BOM_ROCI BOM_POCI BOM_EYE BOM_POS_METHOD BOM_PRES_METHOD NADI_LAT NADI_LON NADI_CAT NADI_WIND NADI_PRES WELLINGTON_LAT WELLINGTON_LON WELLINGTON_WIND WELLINGTON_PRES DS824_LAT DS824_LON DS824_STAGE DS824_WIND DS824_PRES TD9636_LAT TD9636_LON TD9636_STAGE TD9636_WIND TD9636_PRES TD9635_LAT TD9635_LON TD9635_WIND TD9635_PRES TD9635_ROCI NEUMANN_LAT NEUMANN_LON NEUMANN_CLASS NEUMANN_WIND NEUMANN_PRES MLC_LAT MLC_LON MLC_CLASS MLC_WIND MLC_PRES USA_GUST BOM_GUST BOM_GUST_PER REUNION_GUST REUNION_GUST_PER USA_SEAHGT USA_SEARAD_NE USA_SEARAD_SE USA_SEARAD_SW USA_SEARAD_NW STORM_SPEED STORM_DIR
1928205N19089 1928 37 NI BB NOT_NAMED 1928-07-23 00:00:00 TS 19.0000 88.7000 main 254 254 _________O____ -1 19.0000 88.7000 TC 34 0 0
1928205N19089 1928 37 NI BB NOT_NAMED 1928-07-23 03:00:00 TS 19.0000 88.7000 main 254 254 _________PO___ -1 19.0000 88.7000 TC 36 19.0000 88.7000 2 0 0
1928205N19089 1928 37 NI BB NOT_NAMED 1928-07-23 06:00:00 TS 19.0063 88.7006 main 254 254 _________OP___ -1 19.0000 88.7000 TC 39 19.0156 88.7016 2 0 0
1928205N19089 1928 37 NI BB NOT_NAMED 1928-07-23 09:00:00 TS 19.0107 88.7011 main 254 254 _________PP___ -1 19.0000 88.7000 TC 42 19.0250 88.7025 2 0 0
1928205N19089 1928 37 NI BB NOT_NAMED 1928-07-23 12:00:00 TS 19.0109 88.7011 main 254 254 _________OP___ -1 19.0000 88.7000 TC 45 19.0219 88.7022 2 0 0
1928205N19089 1928 37 NI BB NOT_NAMED 1928-07-23 15:00:00 TS 19.0000 88.7000 main 254 254 _________PO___ -1 19.0000 88.7000 TC 45 19.0000 88.7000 3 0 218
1928205N19089 1928 37 NI BB NOT_NAMED 1928-07-23 18:00:00 TS 18.9797 88.6980 main 254 254 _________OP___ -1 19.0000 88.7000 TC 45 18.9594 88.6960 3 1 200
1928205N19089 1928 37 NI BB NOT_NAMED 1928-07-23 21:00:00 TS 18.9475 88.6963 main 261 254 _________PP___ -1 18.9700 88.7000 TC 45 18.9250 88.6925 3 0 0
1928205N19089 1928 37 NI BB NOT_NAMED 1928-07-24 00:00:00 TS 18.9641 88.6964 main 254 248 _________OP___ -1 19.0000 88.7000 TC 45 18.9281 88.6929 3 1 8
1928205N19089 1928 37 NI BB NOT_NAMED 1928-07-24 03:00:00 TS 19.0775 88.6963 main 248 236 _________PO___ -1 19.1550 88.6925 TC 45 19.0000 88.7000 3 3 7
1928205N19089 1928 37 NI BB NOT_NAMED 1928-07-24 06:00:00 TS 19.2951 88.7270 main 236 223 _________OP___ -1 19.4000 88.7000 TC 45 19.1903 88.7540 3 5 10
1928205N19089 1928 37 NI BB NOT_NAMED 1928-07-24 09:00:00 TS 19.5737 88.7909 main 223 190 _________PP___ -1 19.7000 88.7723 TC 45 19.4474 88.8094 3 6 9
1928205N19089 1928 37 NI BB NOT_NAMED 1928-07-24 12:00:00 TS 19.8654 88.8176 main 190 168 _________OP___ -1 20.0000 88.8000 TC 45 19.7308 88.8352 3 5 355
1928205N19089 1928 37 NI BB NOT_NAMED 1928-07-24 15:00:00 TS 20.1112 88.7475 main 169 145 _________PO___ -1 20.2225 88.6951 TC 45 20.0000 88.8000 3 5 334
1928205N19089 1928 37 NI BB NOT_NAMED 1928-07-24 18:00:00 TS 20.2982 88.5965 main 145 123 _________OP___ -1 20.4000 88.5000 TC 45 20.1964 88.6931 3 5 317
1928205N19089 1928 37 NI BB NOT_NAMED 1928-07-24 21:00:00 TS 20.4611 88.3999 main 123 111 _________PP___ -1 20.5499 88.2799 TC 45 20.3722 88.5199 3 5 307
1928205N19089 1928 37 NI BB NOT_NAMED 1928-07-25 00:00:00 TS 20.6185 88.1433 main 112 93 _________OP___ -1 20.7000 88.0000 TC 45 20.5369 88.2867 3 6 303
1928205N19089 1928 37 NI BB NOT_NAMED 1928-07-25 03:00:00 TS 20.8000 87.8363 main 83 56 _________PO___ -1 20.9000 87.6725 TC 41 20.7000 88.0000 3 7 301
1928205N19089 1928 37 NI BB NOT_NAMED 1928-07-25 06:00:00 TS 20.9896 87.4897 main 56 30 _________OP___ -1 21.1000 87.3000 TC 37 20.8792 87.6794 3 8 298
1928205N19089 1928 37 NI BB NOT_NAMED 1928-07-25 09:00:00 TS 21.1576 87.1087 main 23 0 _________PP___ -1 21.2575 86.9074 TC 33 21.0576 87.3100 3 8 294
1928205N19089 1928 37 NI BB NOT_NAMED 1928-07-25 12:00:00 TS 21.3161 86.7053 main 0 0 _________OP___ -1 21.4000 86.5000 TC 30 21.2322 86.9106 3 8 293
1928205N19089 1928 37 NI BB NOT_NAMED 1928-07-25 15:00:00 TS 21.4750 86.3000 main 0 0 _________PO___ -1 21.5499 86.0999 TC 30 21.4000 86.5000 1 8 293
1928205N19089 1928 37 NI BB NOT_NAMED 1928-07-25 18:00:00 TS 21.6325 85.9076 main 0 0 _________OP___ -1 21.7000 85.7000 TC 30 21.5650 86.1151 1 8 293
1928205N19089 1928 37 NI BB NOT_NAMED 1928-07-25 21:00:00 TS 21.7897 85.5149 main 0 0 _________PP___ -1 21.8573 85.3075 TC 30 21.7220 85.7223 1 8 292
1928205N19089 1928 37 NI BB NOT_NAMED 1928-07-26 00:00:00 TS 21.9340 85.1091 main 0 0 _________OP___ -1 22.0000 84.9000 TC 30 21.8680 85.3183 1 8 289
1928205N19089 1928 37 NI BB NOT_NAMED 1928-07-26 03:00:00 TS 22.0537 84.6787 main 0 0 _________PO___ -1 22.1074 84.4574 TC 30 22.0000 84.9000 1 9 285
1928205N19089 1928 37 NI BB NOT_NAMED 1928-07-26 06:00:00 TS 22.1532 84.2198 main 0 0 _________OP___ -1 22.2000 84.0000 TC 30 22.1065 84.4397 1 9 283
1928205N19089 1928 37 NI BB NOT_NAMED 1928-07-26 09:00:00 TS 22.2465 83.7485 main 0 0 _________PP___ -1 22.2925 83.5274 TC 30 22.2004 83.9695 1 9 283
1928205N19089 1928 37 NI BB NOT_NAMED 1928-07-26 12:00:00 TS 22.3470 83.3073 main 0 0 _________OP___ -1 22.4000 83.1000 TC 30 22.2940 83.5147 1 8 287
1928205N19089 1928 37 NI BB NOT_NAMED 1928-07-26 15:00:00 TS 22.4711 82.9387 main 0 0 _________PO___ -1 22.5423 82.7774 TC 30 22.4000 83.1000 1 7 293
1928205N19089 1928 37 NI BB NOT_NAMED 1928-07-26 18:00:00 TS 22.6154 82.6303 main 0 0 _________OP___ -1 22.7000 82.5000 TC 30 22.5309 82.7607 1 6 298
1928205N19089 1928 37 NI BB NOT_NAMED 1928-07-26 21:00:00 TS 22.7633 82.3347 main 0 0 _________PP___ -1 22.8499 82.2074 TC 30 22.6766 82.4621 1 6 299
1928205N19089 1928 37 NI BB NOT_NAMED 1928-07-27 00:00:00 TS 22.9170 82.0412 main 0 0 _________OP___ -1 23.0000 81.9000 TC 30 22.8341 82.1825 1 6 299
1928205N19089 1928 37 NI BB NOT_NAMED 1928-07-27 03:00:00 TS 23.0713 81.7250 main 0 0 _________PO___ -1 23.1425 81.5499 TC 30 23.0000 81.9000 1 7 297
1928205N19089 1928 37 NI BB NOT_NAMED 1928-07-27 06:00:00 TS 23.2257 81.3929 main 0 0 _________OP___ -1 23.3000 81.2000 TC 30 23.1514 81.5858 1 7 299
1928205N19089 1928 37 NI BB NOT_NAMED 1928-07-27 09:00:00 TS 23.3985 81.0820 main 0 0 _________PP___ -1 23.4849 80.8998 TC 30 23.3122 81.2643 1 7 303
1928205N19089 1928 37 NI BB NOT_NAMED 1928-07-27 12:00:00 TS 23.5960 80.7678 main 0 0 _________OP___ -1 23.7000 80.6000 TC 30 23.4920 80.9356 1 7 305
1928205N19089 1928 37 NI BB NOT_NAMED 1928-07-27 15:00:00 TS 23.8175 80.4287 main 0 0 _________PO___ -1 23.9350 80.2574 TC 30 23.7000 80.6000 1 8 307
1928205N19089 1928 37 NI BB NOT_NAMED 1928-07-27 18:00:00 TS 24.0529 80.1043 main 0 0 _________OP___ -1 24.2000 79.9000 TC 30 23.9426 80.2575 1 8 310
1928205N19089 1928 37 NI BB NOT_NAMED 1928-07-27 21:00:00 TS 24.3250 79.7646 main 0 0 _________PP___ -1 24.4926 79.5478 TC 30 24.2132 79.9091 1 8 312
1928205N19089 1928 37 NI BB NOT_NAMED 1928-07-28 00:00:00 TS 24.6015 79.4374 main 0 0 _________OP___ -1 24.8000 79.2000 TC 30 24.5022 79.5562 1 7 313
1928205N19089 1928 37 NI BB NOT_NAMED 1928-07-28 03:00:00 NR 24.8000 79.2000 main 0 __________O___ -1 TC 24.8000 79.2000 1 6 313

IBTrACS Databaseについて

本データベースは、米国NOAAが公開する1842年以降の世界の熱帯低気圧のベストトラックデータアーカイブInternational Best Track Archive for Climate Stewardship (IBTrACS)を、ウェブで閲覧しやすい形式に変換したものです。

最終更新日:2021-10-08